Time;durP1;ratioP1;P1;durP2;ratioP2;P2;SDS_P1;SDS_P2;PMS_P1;PMS_P2;Temp;Humidity;BMP_temperature;BMP_pressure;BME280_temperature;BME280_humidity;BME280_pressure;Samples;Min_cycle;Max_cycle;Signal;HPM_P1;HPM_P2
2023/07/21 13:55:00;;;;;;;0.10;0.10;;;;;;;21.48;100.00;98584.22;5110662;27;20326;-52
2023/07/21 13:57:29;;;;;;;0.07;0.07;;;;;;;21.19;100.00;98585.78;5109155;28;20198;-51
2023/07/21 13:59:57;;;;;;;0.10;0.10;;;;;;;21.04;100.00;98592.97;5107025;28;20274;-52
2023/07/21 14:02:26;;;;;;;0.10;0.10;;;;;;;20.82;100.00;98587.34;5108880;28;20199;-52
2023/07/21 14:04:56;;;;;;;0.10;0.10;;;;;;;20.64;100.00;98584.09;5109539;28;20195;-52
2023/07/21 14:07:27;;;;;;;0.10;0.10;;;;;;;20.84;100.00;98590.75;5108996;28;20274;-53
2023/07/21 14:09:58;;;;;;;0.10;0.10;;;;;;;20.86;100.00;98595.94;5108941;28;20658;-53
2023/07/21 14:12:29;;;;;;;0.00;0.00;;;;;;;20.80;100.00;98599.31;5111994;27;20195;-52
2023/07/21 14:15:01;;;;;;;0.10;0.10;;;;;;;20.35;100.00;98603.53;5110480;27;20270;-51
2023/07/21 14:17:30;;;;;;;0.10;0.10;;;;;;;20.53;100.00;98612.25;5109181;28;20191;-52
2023/07/21 14:19:59;;;;;;;0.10;0.10;;;;;;;20.21;100.00;98612.34;5109168;28;20206;-51
2023/07/21 14:22:31;;;;;;;0.10;0.10;;;;;;;20.24;100.00;98612.81;5108458;28;20670;-52
2023/07/21 14:25:00;;;;;;;0.10;0.10;;;;;;;20.21;100.00;98610.50;5109407;28;20199;-52
2023/07/21 14:27:31;;;;;;;0.10;0.10;;;;;;;20.30;100.00;98625.59;5106676;28;20205;-51
2023/07/21 14:30:00;;;;;;;0.10;0.10;;;;;;;20.35;100.00;98624.22;5109084;28;20234;-52
2023/07/21 14:32:30;;;;;;;0.10;0.10;;;;;;;19.97;100.00;98621.28;5108779;28;20205;-52
2023/07/21 14:34:59;;;;;;;0.10;0.10;;;;;;;19.77;100.00;98617.28;5109065;28;20291;-51
2023/07/21 14:37:27;;;;;;;0.10;0.10;;;;;;;19.50;100.00;98613.09;5108344;28;20244;-52
2023/07/21 14:39:59;;;;;;;0.10;0.10;;;;;;;19.49;100.00;98619.47;5108326;28;20191;-51
2023/07/21 14:42:31;;;;;;;0.10;0.10;;;;;;;19.52;100.00;98617.28;5107499;28;20328;-51
2023/07/21 14:45:02;;;;;;;0.10;0.10;;;;;;;19.11;100.00;98619.97;5108459;28;20270;-52
2023/07/21 14:47:34;;;;;;;0.10;0.10;;;;;;;19.07;100.00;98620.44;5108930;28;20199;-51
2023/07/21 14:50:03;;;;;;;0.10;0.10;;;;;;;19.16;100.00;98619.44;5108269;28;20237;-52
2023/07/21 14:52:31;;;;;;;0.00;0.00;;;;;;;19.66;100.00;98618.47;5109776;27;20236;-51
2023/07/21 14:55:00;;;;;;;0.10;0.10;;;;;;;19.72;100.00;98623.19;5109272;28;20247;-52
2023/07/21 14:57:28;;;;;;;0.10;0.10;;;;;;;19.36;100.00;98612.75;5108082;28;20206;-51
2023/07/21 14:59:57;;;;;;;0.10;0.10;;;;;;;19.44;100.00;98611.91;5109303;28;20202;-51
2023/07/21 15:02:26;;;;;;;0.10;0.10;;;;;;;19.46;100.00;98615.28;5109340;28;20196;-53
2023/07/21 15:04:54;;;;;;;0.10;0.10;;;;;;;19.51;100.00;98615.63;5084376;28;155477;-52
2023/07/21 15:07:22;;;;;;;0.10;0.10;;;;;;;19.54;100.00;98599.16;4975174;28;811615;-52
2023/07/21 15:10:20;;;;;;;0.10;0.10;;;;;;;19.69;100.00;98602.03;4962353;27;1976235;-52
2023/07/21 15:13:21;;;;;;;0.10;0.10;;;;;;;19.56;100.00;98596.31;5079034;27;168242;-51
2023/07/21 15:17:29;;;;;;;0.10;0.10;;;;;;;19.90;100.00;98598.81;5091452;27;20660;-52
2023/07/21 15:25:22;;;;;;;0.10;0.10;;;;;;;20.17;100.00;98586.78;5056337;27;20567;-51
2023/07/21 15:28:16;;;;;;;0.10;0.10;;;;;;;20.24;100.00;98590.47;5027451;28;345030;-52
2023/07/21 15:31:11;;;;;;;0.10;0.10;;;;;;;20.45;100.00;98585.38;5067824;28;20263;-52
2023/07/21 15:34:08;;;;;;;0.10;0.10;;;;;;;20.58;100.00;98590.19;5068171;28;20191;-52
2023/07/21 15:36:59;;;;;;;0.10;0.10;;;;;;;20.84;100.00;98574.59;5068112;28;20271;-52
2023/07/21 15:42:15;;;;;;;0.10;0.10;;;;;;;20.87;100.00;98562.63;5076649;27;179861;-52
2023/07/21 15:45:30;;;;;;;0.10;0.10;;;;;;;21.01;100.00;98569.06;5063473;27;20590;-53
2023/07/21 15:48:02;;;;;;;0.10;0.10;;;;;;;20.99;100.00;98563.03;5085158;28;20187;-51
2023/07/21 15:50:38;;;;;;;0.10;0.10;;;;;;;20.88;100.00;98572.38;5105166;28;20198;-52
2023/07/21 15:53:09;;;;;;;0.10;0.10;;;;;;;20.62;100.00;98564.59;5088721;28;20191;-52
2023/07/21 15:55:51;;;;;;;0.10;0.10;;;;;;;20.62;100.00;98569.97;5085487;28;20184;-51
2023/07/21 15:58:25;;;;;;;0.10;0.10;;;;;;;20.42;100.00;98564.16;5083954;28;20190;-52
2023/07/21 16:01:06;;;;;;;0.10;0.10;;;;;;;20.26;100.00;98575.81;5088531;28;20187;-52
2023/07/21 16:03:40;;;;;;;0.10;0.10;;;;;;;20.19;100.00;98571.34;5104538;28;20211;-52
2023/07/21 16:06:12;;;;;;;0.10;0.10;;;;;;;20.20;100.00;98581.09;5064546;28;706634;-52
2023/07/21 16:08:50;;;;;;;0.10;0.10;;;;;;;20.08;100.00;98582.47;5067668;27;647878;-51
2023/07/21 16:11:23;;;;;;;0.10;0.10;;;;;;;19.90;100.00;98575.47;5106160;28;20186;-52
2023/07/21 16:13:57;;;;;;;0.10;0.10;;;;;;;19.94;100.00;98586.69;5105663;28;20194;-52
2023/07/21 16:16:35;;;;;;;0.03;0.03;;;;;;;19.88;100.00;98585.56;5106845;28;20209;-52
2023/07/21 16:19:09;;;;;;;0.10;0.10;;;;;;;19.95;100.00;98583.81;5108211;28;20370;-52
2023/07/21 16:21:43;;;;;;;0.10;0.10;;;;;;;20.13;100.00;98578.22;5107995;28;20195;-51
2023/07/21 16:24:16;;;;;;;0.10;0.10;;;;;;;20.30;100.00;98587.09;5108495;28;20232;-52
2023/07/21 16:26:52;;;;;;;0.10;0.10;;;;;;;20.29;100.00;98588.94;5088042;28;20198;-52
2023/07/21 16:29:29;;;;;;;0.10;0.10;;;;;;;20.51;100.00;98594.59;5105981;28;20203;-51
2023/07/21 16:32:09;;;;;;;0.00;0.00;;;;;;;20.69;100.00;98589.81;5108413;28;20184;-51
2023/07/21 16:34:41;;;;;;;0.10;0.10;;;;;;;20.82;100.00;98587.34;5101971;28;20210;-51
2023/07/21 16:37:10;;;;;;;0.10;0.10;;;;;;;21.00;100.00;98597.84;5108730;28;20180;-51
2023/07/21 16:39:40;;;;;;;0.10;0.10;;;;;;;20.79;100.00;98595.78;5106913;28;20192;-51
2023/07/21 16:42:09;;;;;;;0.00;0.00;;;;;;;20.50;100.00;98598.31;5107653;28;20183;-51
2023/07/21 16:44:38;;;;;;;0.10;0.10;;;;;;;20.48;100.00;98603.03;5108279;28;20223;-51
2023/07/21 16:47:08;;;;;;;0.10;0.10;;;;;;;20.35;100.00;98598.16;5107870;28;20184;-52
2023/07/21 16:49:37;;;;;;;0.10;0.10;;;;;;;20.44;100.00;98594.44;5108414;28;20184;-52
2023/07/21 16:52:08;;;;;;;0.10;0.10;;;;;;;20.74;100.00;98597.31;5108253;28;20190;-51
2023/07/21 16:54:37;;;;;;;0.00;0.00;;;;;;;20.59;100.00;98605.31;5106729;28;20187;-51
2023/07/21 16:57:06;;;;;;;0.10;0.10;;;;;;;20.40;100.00;98606.56;5093486;28;20347;-51
2023/07/21 16:59:35;;;;;;;0.10;0.10;;;;;;;20.27;100.00;98617.88;5094592;28;20184;-51
2023/07/21 17:02:24;;;;;;;0.10;0.10;;;;;;;20.32;100.00;98622.72;5093240;28;20176;-51
2023/07/21 17:04:54;;;;;;;0.10;0.10;;;;;;;20.29;100.00;98617.69;5094242;28;20214;-52
2023/07/21 17:07:23;;;;;;;0.10;0.10;;;;;;;20.10;100.00;98618.94;5094192;28;20180;-52
2023/07/21 17:09:52;;;;;;;0.10;0.10;;;;;;;20.03;100.00;98612.53;5094375;28;20179;-52
2023/07/21 17:12:24;;;;;;;0.10;0.10;;;;;;;20.00;100.00;98624.50;5093577;28;20188;-51
2023/07/21 17:14:53;;;;;;;0.10;0.10;;;;;;;19.76;100.00;98624.53;5093801;28;20884;-51
2023/07/21 17:17:23;;;;;;;0.10;0.10;;;;;;;19.84;100.00;98626.38;5094244;28;20184;-51
2023/07/21 17:19:53;;;;;;;0.10;0.10;;;;;;;19.63;100.00;98632.25;5093940;28;20184;-51
2023/07/21 17:22:21;;;;;;;0.10;0.10;;;;;;;19.57;100.00;98641.81;5092761;28;20207;-51
2023/07/21 17:24:53;;;;;;;0.10;0.10;;;;;;;19.57;100.00;98632.94;5094593;28;20204;-53
2023/07/21 17:27:23;;;;;;;0.10;0.10;;;;;;;19.36;100.00;98630.72;5091361;28;20195;-51
2023/07/21 17:29:52;;;;;;;0.10;0.10;;;;;;;19.36;100.00;98630.72;5076279;28;20192;-51
2023/07/21 17:32:24;;;;;;;0.10;0.10;;;;;;;19.29;100.00;98637.75;5094068;28;20191;-51
2023/07/21 17:34:56;;;;;;;0.10;0.10;;;;;;;19.28;100.00;98646.81;5091756;28;20176;-51
2023/07/21 17:37:30;;;;;;;0.10;0.10;;;;;;;19.40;100.00;98648.19;5089422;28;20207;-51
2023/07/21 17:40:00;;;;;;;0.10;0.10;;;;;;;19.42;100.00;98651.53;5087273;28;20192;-51
2023/07/21 17:42:33;;;;;;;0.10;0.10;;;;;;;19.39;100.00;98641.94;5089279;28;20192;-51
2023/07/21 17:45:03;;;;;;;0.10;0.10;;;;;;;19.38;100.00;98648.34;5093548;28;20216;-51
2023/07/21 17:47:36;;;;;;;0.10;0.10;;;;;;;19.50;100.00;98646.19;5091947;28;20203;-51
2023/07/21 17:50:11;;;;;;;0.10;0.10;;;;;;;19.59;100.00;98645.22;5088939;28;20180;-51
2023/07/21 17:52:45;;;;;;;0.10;0.10;;;;;;;19.73;100.00;98643.69;5087354;28;20187;-51
2023/07/21 17:55:17;;;;;;;0.00;0.00;;;;;;;19.91;100.00;98655.09;5072417;28;20274;-51
2023/07/21 17:57:49;;;;;;;0.10;0.10;;;;;;;20.10;100.00;98656.56;5088558;28;20184;-50
2023/07/21 18:00:21;;;;;;;0.00;0.00;;;;;;;20.17;100.00;98651.31;5092702;28;20188;-51
2023/07/21 18:02:56;;;;;;;0.10;0.10;;;;;;;20.28;100.00;98664.44;5092692;28;20203;-51
2023/07/21 18:05:27;;;;;;;0.10;0.10;;;;;;;20.28;100.00;98669.81;5080642;28;20214;-51
2023/07/21 18:07:57;;;;;;;0.10;0.10;;;;;;;20.15;100.00;98670.31;5073701;28;20192;-51
2023/07/21 18:10:28;;;;;;;0.10;0.10;;;;;;;20.12;100.00;98669.84;5091647;28;20666;-51
2023/07/21 18:12:58;;;;;;;0.10;0.10;;;;;;;20.17;100.00;98665.66;5091318;28;20187;-51
2023/07/21 18:15:34;;;;;;;0.10;0.10;;;;;;;20.12;100.00;98668.00;5090115;28;20188;-53
2023/07/21 18:18:05;;;;;;;0.10;0.10;;;;;;;20.05;100.00;98668.84;5091544;28;20187;-52
2023/07/21 18:20:35;;;;;;;0.10;0.10;;;;;;;20.01;100.00;98669.19;5091959;28;20179;-52
2023/07/21 18:23:06;;;;;;;0.10;0.10;;;;;;;19.99;100.00;98667.69;5093180;28;20507;-52
2023/07/21 18:25:47;;;;;;;0.10;0.10;;;;;;;19.90;100.00;98674.09;5091499;28;20207;-52
2023/07/21 18:28:18;;;;;;;0.10;0.10;;;;;;;20.00;100.00;98667.50;5089943;28;20227;-52
2023/07/21 18:30:56;;;;;;;0.10;0.10;;;;;;;20.05;100.00;98682.28;5073947;28;20203;-51
2023/07/21 18:33:30;;;;;;;0.10;0.10;;;;;;;20.08;100.00;98673.91;5090152;28;20191;-52
2023/07/21 18:36:15;;;;;;;0.00;0.00;;;;;;;20.04;100.00;98669.84;5092939;28;20189;-52
2023/07/21 18:38:47;;;;;;;0.10;0.10;;;;;;;19.96;100.00;98673.38;5088633;28;20302;-52
2023/07/21 18:41:21;;;;;;;0.10;0.10;;;;;;;19.91;100.00;98690.03;5088132;28;20206;-52
2023/07/21 18:43:52;;;;;;;0.10;0.10;;;;;;;19.82;100.00;98690.22;5087454;28;20227;-52
2023/07/21 18:46:24;;;;;;;0.10;0.10;;;;;;;19.94;100.00;98697.75;5092858;28;20560;-52
2023/07/21 18:48:55;;;;;;;0.00;0.00;;;;;;;19.79;100.00;98704.00;5092839;28;20184;-52
2023/07/21 18:51:25;;;;;;;0.10;0.10;;;;;;;19.72;100.00;98706.50;5093506;28;20191;-52
2023/07/21 18:53:54;;;;;;;0.10;0.10;;;;;;;19.75;100.00;98710.69;5093345;28;20187;-52
2023/07/21 18:56:23;;;;;;;0.10;0.10;;;;;;;19.68;100.00;98710.50;5093203;28;20180;-52
2023/07/21 18:58:52;;;;;;;0.10;0.10;;;;;;;19.71;100.00;98711.03;5092037;28;20210;-52
2023/07/21 19:01:23;;;;;;;0.10;0.10;;;;;;;19.65;100.00;98718.91;5093192;28;20191;-52
2023/07/21 19:03:54;;;;;;;0.10;0.10;;;;;;;19.62;100.00;98719.25;5093073;28;20184;-52
2023/07/21 19:06:23;;;;;;;0.10;0.10;;;;;;;19.52;100.00;98716.69;5093225;28;20203;-52
2023/07/21 19:08:52;;;;;;;0.10;0.10;;;;;;;19.45;100.00;98712.97;5093174;28;20175;-52
2023/07/21 19:11:22;;;;;;;0.10;0.10;;;;;;;19.40;100.00;98716.19;5089477;28;20199;-52
2023/07/21 19:13:52;;;;;;;0.10;0.10;;;;;;;19.36;100.00;98722.88;5092185;28;20180;-53
2023/07/21 19:16:22;;;;;;;0.10;0.10;;;;;;;19.27;100.00;98720.31;5092763;28;20191;-51
2023/07/21 19:18:52;;;;;;;0.10;0.10;;;;;;;19.25;100.00;98719.66;5092129;28;20184;-52
2023/07/21 19:21:22;;;;;;;0.10;0.10;;;;;;;19.11;100.00;98732.72;5092529;28;20190;-52
2023/07/21 19:23:52;;;;;;;0.10;0.10;;;;;;;19.08;100.00;98733.03;5092464;28;20191;-52
2023/07/21 19:26:23;;;;;;;0.10;0.10;;;;;;;19.02;100.00;98732.84;5089828;28;20200;-52
2023/07/21 19:28:54;;;;;;;0.10;0.10;;;;;;;18.94;100.00;98740.88;5091170;28;20184;-53
2023/07/21 19:31:23;;;;;;;0.10;0.10;;;;;;;18.82;100.00;98749.22;5091588;28;20195;-52
2023/07/21 19:33:53;;;;;;;0.10;0.10;;;;;;;18.71;100.00;98754.84;5091495;28;20192;-52
2023/07/21 19:36:23;;;;;;;0.10;0.10;;;;;;;18.67;100.00;98753.47;5091651;28;20180;-52
2023/07/21 19:38:54;;;;;;;0.10;0.10;;;;;;;18.49;100.00;98761.56;5092669;28;20199;-53
2023/07/21 19:41:23;;;;;;;0.00;0.00;;;;;;;18.42;100.00;98767.69;5092815;28;20183;-52
2023/07/21 19:43:53;;;;;;;0.10;0.10;;;;;;;18.24;100.00;98773.97;5091791;28;20219;-52
2023/07/21 19:46:22;;;;;;;0.07;0.07;;;;;;;18.31;100.00;98779.53;5092775;28;20206;-51
2023/07/21 19:48:51;;;;;;;0.10;0.10;;;;;;;18.30;100.00;98777.84;5092700;28;20187;-52
2023/07/21 19:51:20;;;;;;;0.10;0.10;;;;;;;18.19;100.00;98789.66;5092472;28;20193;-52
2023/07/21 19:53:51;;;;;;;0.10;0.10;;;;;;;18.10;100.00;98787.09;5092750;28;20197;-52
2023/07/21 19:56:20;;;;;;;0.10;0.10;;;;;;;18.11;100.00;98791.44;5092647;28;20183;-52
2023/07/21 19:58:49;;;;;;;0.10;0.10;;;;;;;18.14;100.00;98804.53;5091720;28;20191;-52
2023/07/21 20:01:18;;;;;;;0.10;0.10;;;;;;;17.97;100.00;98800.88;5092587;28;20176;-52
2023/07/21 20:03:47;;;;;;;0.10;0.10;;;;;;;18.01;100.00;98799.56;5092645;28;20263;-52
2023/07/21 20:06:19;;;;;;;0.10;0.10;;;;;;;17.94;100.00;98795.81;5092548;28;20191;-52
2023/07/21 20:08:49;;;;;;;0.10;0.10;;;;;;;17.87;100.00;98802.81;5092465;28;20176;-51
2023/07/21 20:11:18;;;;;;;0.10;0.10;;;;;;;17.80;100.00;98810.59;5092498;28;20188;-50
2023/07/21 20:13:47;;;;;;;0.10;0.10;;;;;;;17.80;100.00;98813.28;5091678;28;20176;-52
2023/07/21 20:16:16;;;;;;;0.10;0.10;;;;;;;17.70;100.00;98823.22;5092448;28;20191;-51
2023/07/21 20:18:45;;;;;;;0.10;0.10;;;;;;;17.55;100.00;98816.66;5088065;28;20192;-51
2023/07/21 20:21:17;;;;;;;0.10;0.10;;;;;;;17.60;100.00;98819.75;5089090;28;20187;-51
2023/07/21 20:23:56;;;;;;;0.10;0.10;;;;;;;17.53;100.00;98814.13;5109745;28;20196;-51
2023/07/21 20:29:10;;;;;;;0.10;0.10;;;;;;;17.60;100.00;98817.91;5044341;27;20563;-52
2023/07/21 20:31:43;;;;;;;0.10;0.10;;;;;;;17.60;100.00;98819.75;5060534;28;20197;-51
2023/07/21 20:34:16;;;;;;;0.10;0.10;;;;;;;17.59;100.00;98820.72;5068667;28;20200;-52
2023/07/21 20:36:47;;;;;;;0.10;0.10;;;;;;;17.55;100.00;98813.97;5068431;28;20252;-52
2023/07/21 20:39:22;;;;;;;0.10;0.10;;;;;;;17.54;100.00;98825.69;5068694;28;20245;-52
2023/07/21 20:41:53;;;;;;;0.10;0.10;;;;;;;17.53;100.00;98834.72;5066840;28;20211;-51
2023/07/21 20:44:25;;;;;;;0.10;0.10;;;;;;;17.54;100.00;98839.06;5068144;28;20185;-52
2023/07/21 20:46:55;;;;;;;0.10;0.10;;;;;;;17.50;100.00;98833.19;5060098;28;20180;-51
2023/07/21 20:49:23;;;;;;;0.10;0.10;;;;;;;17.46;100.00;98832.63;5068403;28;20176;-52
2023/07/21 20:51:54;;;;;;;0.10;0.10;;;;;;;17.43;100.00;98832.94;5068031;28;20181;-52
2023/07/21 20:54:24;;;;;;;0.10;0.10;;;;;;;17.45;100.00;98840.81;5037749;28;219291;-51
2023/07/21 20:57:26;;;;;;;0.10;0.10;;;;;;;17.46;100.00;98837.97;5052896;27;20585;-51
2023/07/21 21:00:13;;;;;;;0.10;0.10;;;;;;;17.36;100.00;98839.88;5088840;28;20199;-52
2023/07/21 21:03:00;;;;;;;0.10;0.10;;;;;;;17.34;100.00;98846.38;5089640;28;20190;-52
2023/07/21 21:05:55;;;;;;;0.10;0.10;;;;;;;17.34;100.00;98846.38;5089260;28;20195;-51
2023/07/21 21:08:42;;;;;;;0.10;0.10;;;;;;;17.28;100.00;98852.34;5090174;28;20238;-52
2023/07/21 21:11:29;;;;;;;0.10;0.10;;;;;;;17.26;100.00;98849.78;5090338;28;20190;-52
2023/07/21 21:14:17;;;;;;;0.10;0.10;;;;;;;17.21;100.00;98859.28;5090233;28;20225;-51
2023/07/21 21:17:04;;;;;;;0.10;0.10;;;;;;;17.17;100.00;98864.06;5089684;28;20222;-51
2023/07/21 21:19:51;;;;;;;0.10;0.10;;;;;;;17.15;100.00;98858.84;5090028;28;20233;-51
2023/07/21 21:22:38;;;;;;;0.10;0.10;;;;;;;17.19;100.00;98862.09;5090018;28;20194;-52
2023/07/21 21:25:25;;;;;;;0.10;0.10;;;;;;;17.20;100.00;98852.22;5089804;28;20194;-52
2023/07/21 21:28:13;;;;;;;0.10;0.10;;;;;;;17.27;100.00;98855.97;5088691;28;20298;-51
2023/07/21 21:31:02;;;;;;;0.10;0.10;;;;;;;17.20;100.00;98866.47;5089770;28;20219;-51
2023/07/21 21:33:49;;;;;;;0.10;0.10;;;;;;;17.10;100.00;98855.78;5089626;28;20249;-52
2023/07/21 21:36:36;;;;;;;0.10;0.10;;;;;;;17.10;100.00;98866.50;5089524;28;20280;-51
2023/07/21 21:39:23;;;;;;;0.10;0.10;;;;;;;16.96;100.00;98869.63;5089812;28;20207;-51
2023/07/21 21:42:10;;;;;;;0.10;0.10;;;;;;;16.97;100.00;98876.66;5088281;28;20266;-52
2023/07/21 21:44:58;;;;;;;0.10;0.10;;;;;;;16.85;100.00;98878.69;5089498;28;20285;-52
2023/07/21 21:47:47;;;;;;;0.10;0.10;;;;;;;16.93;100.00;98877.97;5089537;28;20199;-51
2023/07/21 21:50:33;;;;;;;0.10;0.10;;;;;;;16.86;100.00;98883.03;5089443;28;20715;-52
2023/07/21 21:53:21;;;;;;;0.10;0.10;;;;;;;16.82;100.00;98888.84;5089431;28;20226;-52
2023/07/21 21:56:07;;;;;;;0.10;0.10;;;;;;;16.84;100.00;98887.69;5088948;28;20226;-52
2023/07/21 21:58:55;;;;;;;0.10;0.10;;;;;;;16.70;100.00;98890.84;5088155;28;20199;-52
2023/07/21 22:01:41;;;;;;;0.10;0.10;;;;;;;16.64;100.00;98893.19;5089306;28;20207;-52
2023/07/21 22:04:30;;;;;;;0.10;0.10;;;;;;;16.68;100.00;98899.94;5089299;28;20263;-51
2023/07/21 22:07:17;;;;;;;0.10;0.10;;;;;;;16.59;100.00;98893.59;5091317;28;20213;-53
2023/07/21 22:10:05;;;;;;;0.00;0.00;;;;;;;16.62;100.00;98896.03;5055722;28;20221;-52
2023/07/21 22:12:52;;;;;;;0.10;0.10;;;;;;;16.55;100.00;98894.88;5054452;28;20687;-53
2023/07/21 22:15:39;;;;;;;0.10;0.10;;;;;;;16.40;100.00;98898.97;5055545;28;20200;-52
2023/07/21 22:18:26;;;;;;;0.10;0.10;;;;;;;16.42;100.00;98895.19;5055653;28;20273;-52
2023/07/21 22:21:15;;;;;;;0.10;0.10;;;;;;;16.32;100.00;98897.03;5055383;28;20212;-52
2023/07/21 22:24:02;;;;;;;0.10;0.10;;;;;;;16.19;100.00;98899.13;5055384;28;20313;-53
2023/07/21 22:26:49;;;;;;;0.10;0.10;;;;;;;16.11;100.00;98904.31;5052840;28;20243;-53
2023/07/21 22:29:36;;;;;;;0.10;0.10;;;;;;;16.05;100.00;98912.91;5055358;28;20255;-51
2023/07/21 22:32:23;;;;;;;0.10;0.10;;;;;;;15.91;100.00;98906.97;5055333;28;20196;-52
2023/07/21 22:35:10;;;;;;;0.03;0.03;;;;;;;15.78;100.00;98910.88;5055130;28;20207;-51
2023/07/21 22:37:59;;;;;;;0.10;0.10;;;;;;;15.66;100.00;98910.16;5054799;28;20223;-51
2023/07/21 22:40:46;;;;;;;0.10;0.10;;;;;;;15.63;100.00;98913.94;5055113;28;20212;-51
2023/07/21 22:43:33;;;;;;;0.10;0.10;;;;;;;15.55;100.00;98905.75;5053954;28;20743;-51
2023/07/21 22:46:20;;;;;;;0.10;0.10;;;;;;;15.50;100.00;98915.97;5055004;28;20255;-51
2023/07/21 22:49:08;;;;;;;0.10;0.10;;;;;;;15.28;100.00;98917.00;5054240;28;20307;-51
2023/07/21 22:51:54;;;;;;;0.10;0.10;;;;;;;15.31;100.00;98922.06;5054710;28;20286;-51
2023/07/21 22:54:42;;;;;;;0.10;0.10;;;;;;;15.09;100.00;98928.44;5054896;28;20195;-51
2023/07/21 22:57:29;;;;;;;0.10;0.10;;;;;;;15.09;100.00;98923.09;5053003;28;20342;-51
2023/07/21 23:00:16;;;;;;;0.10;0.10;;;;;;;15.04;100.00;98940.47;5054803;28;20697;-52
2023/07/21 23:03:03;;;;;;;0.10;0.10;;;;;;;15.03;100.00;98947.63;5054823;28;20196;-51
2023/07/21 23:05:50;;;;;;;0.10;0.10;;;;;;;15.07;100.00;98945.56;5054666;28;20192;-52
2023/07/21 23:08:37;;;;;;;0.10;0.10;;;;;;;15.13;100.00;98950.34;5054507;28;20267;-51
2023/07/21 23:11:25;;;;;;;0.10;0.10;;;;;;;15.15;100.00;98949.25;5054650;28;20204;-52
2023/07/21 23:14:12;;;;;;;0.10;0.10;;;;;;;15.09;100.00;98949.78;5054426;28;20220;-52
2023/07/21 23:16:59;;;;;;;0.10;0.10;;;;;;;15.00;100.00;98955.91;5054151;28;20220;-51
2023/07/21 23:19:46;;;;;;;0.10;0.10;;;;;;;14.99;100.00;98964.03;5053296;28;20227;-52
2023/07/21 23:22:33;;;;;;;0.10;0.10;;;;;;;14.91;100.00;98953.16;5054301;28;20269;-51
2023/07/21 23:25:20;;;;;;;0.10;0.10;;;;;;;14.91;100.00;98956.69;5054258;28;20200;-51
2023/07/21 23:28:09;;;;;;;0.10;0.10;;;;;;;14.85;100.00;98954.53;5052886;28;20217;-52
2023/07/21 23:31:03;;;;;;;0.10;0.10;;;;;;;14.83;100.00;98952.00;5054149;28;20196;-51
2023/07/21 23:33:49;;;;;;;0.10;0.10;;;;;;;14.92;100.00;98949.53;5054088;28;20189;-51
2023/07/21 23:36:36;;;;;;;0.10;0.10;;;;;;;14.93;100.00;98945.88;5053910;28;20211;-52
2023/07/21 23:39:23;;;;;;;0.10;0.10;;;;;;;14.86;100.00;98954.41;5053943;28;20192;-52
2023/07/21 23:42:10;;;;;;;0.10;0.10;;;;;;;14.94;100.00;98967.06;5052536;28;20305;-51
2023/07/21 23:44:58;;;;;;;0.10;0.10;;;;;;;14.89;100.00;98961.31;5053806;28;20219;-51
2023/07/21 23:47:47;;;;;;;0.10;0.10;;;;;;;14.83;100.00;98956.47;5053795;28;20224;-51
2023/07/21 23:50:33;;;;;;;0.10;0.10;;;;;;;14.83;100.00;98959.16;5053701;28;20188;-51
2023/07/21 23:53:21;;;;;;;0.10;0.10;;;;;;;14.75;100.00;98953.59;5053645;28;20192;-52
2023/07/21 23:56:08;;;;;;;0.10;0.10;;;;;;;14.78;100.00;98953.38;5053501;28;20298;-51
2023/07/21 23:58:55;;;;;;;0.10;0.10;;;;;;;14.71;100.00;98957.53;5053059;28;20188;-51
